sensor_id;sensor_type;location;lat;lon;timestamp;P1;durP1;ratioP1;P2;durP2;ratioP2
55784;SDS011;41709;52.536;5.688;2022-12-10T00:00:22;52.33;;;26.30;;
55784;SDS011;41709;52.536;5.688;2022-12-10T00:02:47;54.55;;;27.67;;
55784;SDS011;41709;52.536;5.688;2022-12-10T00:05:13;56.60;;;26.25;;
55784;SDS011;41709;52.536;5.688;2022-12-10T00:07:38;55.70;;;28.30;;
55784;SDS011;41709;52.536;5.688;2022-12-10T00:10:04;61.80;;;28.77;;
55784;SDS011;41709;52.536;5.688;2022-12-10T00:12:30;54.70;;;27.58;;
55784;SDS011;41709;52.536;5.688;2022-12-10T00:14:55;58.50;;;29.55;;
55784;SDS011;41709;52.536;5.688;2022-12-10T00:17:21;53.47;;;26.55;;
55784;SDS011;41709;52.536;5.688;2022-12-10T00:19:46;53.17;;;27.73;;
55784;SDS011;41709;52.536;5.688;2022-12-10T00:22:12;56.05;;;26.77;;
55784;SDS011;41709;52.536;5.688;2022-12-10T00:24:37;60.67;;;29.38;;
55784;SDS011;41709;52.536;5.688;2022-12-10T00:27:03;58.20;;;29.48;;
55784;SDS011;41709;52.536;5.688;2022-12-10T00:29:29;56.03;;;28.40;;
55784;SDS011;41709;52.536;5.688;2022-12-10T00:31:54;61.10;;;30.20;;
55784;SDS011;41709;52.536;5.688;2022-12-10T00:34:20;55.08;;;27.88;;
55784;SDS011;41709;52.536;5.688;2022-12-10T00:36:46;55.20;;;27.67;;
55784;SDS011;41709;52.536;5.688;2022-12-10T00:39:15;61.53;;;29.13;;
55784;SDS011;41709;52.536;5.688;2022-12-10T00:41:42;53.83;;;27.05;;
55784;SDS011;41709;52.536;5.688;2022-12-10T00:44:09;54.42;;;28.20;;
55784;SDS011;41709;52.536;5.688;2022-12-10T00:46:34;60.17;;;28.77;;
55784;SDS011;41709;52.536;5.688;2022-12-10T00:49:00;56.35;;;28.92;;
55784;SDS011;41709;52.536;5.688;2022-12-10T00:51:27;56.13;;;28.23;;
55784;SDS011;41709;52.536;5.688;2022-12-10T00:53:53;59.55;;;28.83;;
55784;SDS011;41709;52.536;5.688;2022-12-10T00:56:25;65.50;;;29.88;;
55784;SDS011;41709;52.536;5.688;2022-12-10T00:58:52;62.92;;;29.30;;
55784;SDS011;41709;52.536;5.688;2022-12-10T01:01:30;58.03;;;28.60;;
55784;SDS011;41709;52.536;5.688;2022-12-10T01:03:58;57.75;;;29.05;;
55784;SDS011;41709;52.536;5.688;2022-12-10T01:06:29;57.47;;;28.40;;
55784;SDS011;41709;52.536;5.688;2022-12-10T01:08:57;60.95;;;29.65;;
55784;SDS011;41709;52.536;5.688;2022-12-10T01:11:26;66.53;;;31.27;;
55784;SDS011;41709;52.536;5.688;2022-12-10T01:13:54;61.90;;;30.67;;
55784;SDS011;41709;52.536;5.688;2022-12-10T01:16:21;55.65;;;29.10;;
55784;SDS011;41709;52.536;5.688;2022-12-10T01:18:47;59.85;;;28.48;;
55784;SDS011;41709;52.536;5.688;2022-12-10T01:21:15;64.82;;;31.10;;
55784;SDS011;41709;52.536;5.688;2022-12-10T01:23:43;59.17;;;29.05;;
55784;SDS011;41709;52.536;5.688;2022-12-10T01:26:15;54.05;;;28.42;;
55784;SDS011;41709;52.536;5.688;2022-12-10T01:28:43;62.65;;;29.10;;
55784;SDS011;41709;52.536;5.688;2022-12-10T01:31:29;58.63;;;29.23;;
55784;SDS011;41709;52.536;5.688;2022-12-10T01:33:56;64.63;;;30.35;;
55784;SDS011;41709;52.536;5.688;2022-12-10T01:36:33;59.55;;;27.95;;
55784;SDS011;41709;52.536;5.688;2022-12-10T01:39:02;62.03;;;31.50;;
55784;SDS011;41709;52.536;5.688;2022-12-10T01:41:33;56.00;;;27.40;;
55784;SDS011;41709;52.536;5.688;2022-12-10T01:44:53;63.35;;;28.80;;
55784;SDS011;41709;52.536;5.688;2022-12-10T01:46:54;60.03;;;29.08;;
55784;SDS011;41709;52.536;5.688;2022-12-10T01:49:24;59.97;;;29.63;;
55784;SDS011;41709;52.536;5.688;2022-12-10T01:52:02;58.78;;;29.83;;
55784;SDS011;41709;52.536;5.688;2022-12-10T01:54:31;58.38;;;28.92;;
55784;SDS011;41709;52.536;5.688;2022-12-10T01:57:09;57.58;;;28.85;;
55784;SDS011;41709;52.536;5.688;2022-12-10T01:59:47;61.65;;;28.58;;
55784;SDS011;41709;52.536;5.688;2022-12-10T02:13:38;62.17;;;30.80;;
55784;SDS011;41709;52.536;5.688;2022-12-10T02:16:12;62.55;;;29.42;;
55784;SDS011;41709;52.536;5.688;2022-12-10T02:21:16;61.53;;;30.37;;
55784;SDS011;41709;52.536;5.688;2022-12-10T02:23:47;65.35;;;31.45;;
55784;SDS011;41709;52.536;5.688;2022-12-10T02:29:17;66.10;;;30.67;;
55784;SDS011;41709;52.536;5.688;2022-12-10T02:31:52;69.80;;;30.67;;
55784;SDS011;41709;52.536;5.688;2022-12-10T02:34:24;71.78;;;31.27;;
55784;SDS011;41709;52.536;5.688;2022-12-10T02:36:55;73.85;;;34.38;;
55784;SDS011;41709;52.536;5.688;2022-12-10T02:39:26;65.28;;;29.05;;
55784;SDS011;41709;52.536;5.688;2022-12-10T02:41:56;70.05;;;29.98;;
55784;SDS011;41709;52.536;5.688;2022-12-10T02:44:25;83.70;;;29.15;;
55784;SDS011;41709;52.536;5.688;2022-12-10T02:46:55;95.57;;;29.13;;
55784;SDS011;41709;52.536;5.688;2022-12-10T02:49:23;71.10;;;27.90;;
55784;SDS011;41709;52.536;5.688;2022-12-10T02:51:50;72.43;;;27.60;;
55784;SDS011;41709;52.536;5.688;2022-12-10T02:59:47;94.20;;;30.17;;
55784;SDS011;41709;52.536;5.688;2022-12-10T03:02:28;87.35;;;29.23;;
55784;SDS011;41709;52.536;5.688;2022-12-10T03:07:33;96.00;;;29.80;;
55784;SDS011;41709;52.536;5.688;2022-12-10T03:10:24;81.32;;;28.30;;
55784;SDS011;41709;52.536;5.688;2022-12-10T03:13:06;85.72;;;26.70;;
55784;SDS011;41709;52.536;5.688;2022-12-10T03:15:35;97.10;;;28.65;;
55784;SDS011;41709;52.536;5.688;2022-12-10T03:18:05;93.15;;;29.65;;
55784;SDS011;41709;52.536;5.688;2022-12-10T03:20:34;117.43;;;26.65;;
55784;SDS011;41709;52.536;5.688;2022-12-10T03:23:07;101.47;;;26.60;;
55784;SDS011;41709;52.536;5.688;2022-12-10T03:25:36;87.55;;;26.55;;
55784;SDS011;41709;52.536;5.688;2022-12-10T03:28:03;96.90;;;23.98;;
55784;SDS011;41709;52.536;5.688;2022-12-10T03:30:30;111.38;;;27.15;;
55784;SDS011;41709;52.536;5.688;2022-12-10T03:32:57;133.55;;;25.95;;
55784;SDS011;41709;52.536;5.688;2022-12-10T03:35:23;113.38;;;26.52;;
55784;SDS011;41709;52.536;5.688;2022-12-10T03:37:50;139.88;;;27.00;;
55784;SDS011;41709;52.536;5.688;2022-12-10T03:40:17;121.15;;;24.33;;
55784;SDS011;41709;52.536;5.688;2022-12-10T03:42:46;121.75;;;24.55;;
55784;SDS011;41709;52.536;5.688;2022-12-10T03:45:11;99.03;;;25.23;;
55784;SDS011;41709;52.536;5.688;2022-12-10T03:47:37;176.88;;;26.40;;
55784;SDS011;41709;52.536;5.688;2022-12-10T03:50:02;111.38;;;22.55;;
55784;SDS011;41709;52.536;5.688;2022-12-10T03:52:28;126.68;;;23.85;;
55784;SDS011;41709;52.536;5.688;2022-12-10T03:54:54;102.55;;;23.35;;
55784;SDS011;41709;52.536;5.688;2022-12-10T03:57:19;124.25;;;24.20;;
55784;SDS011;41709;52.536;5.688;2022-12-10T03:59:45;96.15;;;22.70;;
55784;SDS011;41709;52.536;5.688;2022-12-10T04:02:10;93.63;;;23.52;;
55784;SDS011;41709;52.536;5.688;2022-12-10T04:04:36;74.90;;;23.10;;
55784;SDS011;41709;52.536;5.688;2022-12-10T04:07:02;86.85;;;23.33;;
55784;SDS011;41709;52.536;5.688;2022-12-10T04:09:27;138.20;;;25.08;;
55784;SDS011;41709;52.536;5.688;2022-12-10T04:11:56;101.13;;;23.02;;
55784;SDS011;41709;52.536;5.688;2022-12-10T04:14:23;101.13;;;21.75;;
55784;SDS011;41709;52.536;5.688;2022-12-10T04:17:08;76.95;;;24.75;;
55784;SDS011;41709;52.536;5.688;2022-12-10T04:19:34;93.05;;;22.65;;
55784;SDS011;41709;52.536;5.688;2022-12-10T04:21:59;118.97;;;21.92;;
55784;SDS011;41709;52.536;5.688;2022-12-10T04:24:44;120.25;;;24.23;;
55784;SDS011;41709;52.536;5.688;2022-12-10T04:27:32;85.05;;;22.70;;
55784;SDS011;41709;52.536;5.688;2022-12-10T04:30:00;91.32;;;21.02;;
55784;SDS011;41709;52.536;5.688;2022-12-10T04:32:27;119.75;;;21.05;;
55784;SDS011;41709;52.536;5.688;2022-12-10T04:34:54;95.45;;;20.73;;
55784;SDS011;41709;52.536;5.688;2022-12-10T04:37:19;80.88;;;19.13;;
55784;SDS011;41709;52.536;5.688;2022-12-10T04:39:46;74.68;;;21.73;;
55784;SDS011;41709;52.536;5.688;2022-12-10T04:42:12;75.85;;;21.40;;
55784;SDS011;41709;52.536;5.688;2022-12-10T04:44:37;84.10;;;20.77;;
55784;SDS011;41709;52.536;5.688;2022-12-10T04:47:04;77.30;;;22.20;;
55784;SDS011;41709;52.536;5.688;2022-12-10T04:49:30;121.57;;;22.23;;
55784;SDS011;41709;52.536;5.688;2022-12-10T04:51:56;87.53;;;20.30;;
55784;SDS011;41709;52.536;5.688;2022-12-10T04:54:22;101.75;;;19.50;;
55784;SDS011;41709;52.536;5.688;2022-12-10T04:56:47;81.50;;;20.73;;
55784;SDS011;41709;52.536;5.688;2022-12-10T04:59:13;74.05;;;21.20;;
55784;SDS011;41709;52.536;5.688;2022-12-10T05:01:38;77.25;;;21.95;;
55784;SDS011;41709;52.536;5.688;2022-12-10T05:04:05;74.55;;;18.58;;
55784;SDS011;41709;52.536;5.688;2022-12-10T05:06:32;71.88;;;20.70;;
55784;SDS011;41709;52.536;5.688;2022-12-10T05:08:57;82.30;;;20.35;;
55784;SDS011;41709;52.536;5.688;2022-12-10T05:11:24;70.45;;;20.55;;
55784;SDS011;41709;52.536;5.688;2022-12-10T05:13:52;89.10;;;22.70;;
55784;SDS011;41709;52.536;5.688;2022-12-10T05:16:18;104.72;;;20.83;;
55784;SDS011;41709;52.536;5.688;2022-12-10T05:18:45;106.68;;;21.65;;
55784;SDS011;41709;52.536;5.688;2022-12-10T05:21:12;102.38;;;21.83;;
55784;SDS011;41709;52.536;5.688;2022-12-10T05:23:40;85.80;;;21.42;;
55784;SDS011;41709;52.536;5.688;2022-12-10T05:28:54;94.53;;;20.52;;
55784;SDS011;41709;52.536;5.688;2022-12-10T05:31:22;102.80;;;20.35;;
55784;SDS011;41709;52.536;5.688;2022-12-10T05:33:50;88.25;;;19.75;;
55784;SDS011;41709;52.536;5.688;2022-12-10T05:36:18;88.72;;;21.30;;
55784;SDS011;41709;52.536;5.688;2022-12-10T05:38:45;93.35;;;21.20;;
55784;SDS011;41709;52.536;5.688;2022-12-10T05:41:12;72.05;;;20.85;;
55784;SDS011;41709;52.536;5.688;2022-12-10T05:43:38;70.95;;;20.80;;
55784;SDS011;41709;52.536;5.688;2022-12-10T05:46:05;82.95;;;20.95;;
55784;SDS011;41709;52.536;5.688;2022-12-10T05:48:34;100.10;;;20.60;;
55784;SDS011;41709;52.536;5.688;2022-12-10T05:51:07;103.30;;;22.88;;
55784;SDS011;41709;52.536;5.688;2022-12-10T05:53:35;88.95;;;19.83;;
55784;SDS011;41709;52.536;5.688;2022-12-10T05:56:10;82.65;;;19.50;;
55784;SDS011;41709;52.536;5.688;2022-12-10T05:58:40;84.38;;;19.48;;
55784;SDS011;41709;52.536;5.688;2022-12-10T06:01:08;88.40;;;20.40;;
55784;SDS011;41709;52.536;5.688;2022-12-10T06:03:37;110.68;;;20.60;;
55784;SDS011;41709;52.536;5.688;2022-12-10T06:06:04;94.78;;;22.05;;
55784;SDS011;41709;52.536;5.688;2022-12-10T06:08:30;103.13;;;21.35;;
55784;SDS011;41709;52.536;5.688;2022-12-10T06:10:59;63.03;;;19.27;;
55784;SDS011;41709;52.536;5.688;2022-12-10T06:13:29;69.25;;;19.50;;
55784;SDS011;41709;52.536;5.688;2022-12-10T06:15:55;80.43;;;18.92;;
55784;SDS011;41709;52.536;5.688;2022-12-10T06:18:20;80.50;;;20.65;;
55784;SDS011;41709;52.536;5.688;2022-12-10T06:20:46;76.65;;;20.13;;
55784;SDS011;41709;52.536;5.688;2022-12-10T06:23:12;77.25;;;20.25;;
55784;SDS011;41709;52.536;5.688;2022-12-10T06:25:38;82.70;;;20.00;;
55784;SDS011;41709;52.536;5.688;2022-12-10T06:28:04;80.32;;;20.92;;
55784;SDS011;41709;52.536;5.688;2022-12-10T06:30:31;82.45;;;20.52;;
55784;SDS011;41709;52.536;5.688;2022-12-10T06:32:57;78.03;;;20.75;;
55784;SDS011;41709;52.536;5.688;2022-12-10T06:35:22;60.88;;;19.92;;
55784;SDS011;41709;52.536;5.688;2022-12-10T06:37:48;67.20;;;20.13;;
55784;SDS011;41709;52.536;5.688;2022-12-10T06:40:15;75.03;;;20.05;;
55784;SDS011;41709;52.536;5.688;2022-12-10T06:42:41;69.22;;;21.45;;
55784;SDS011;41709;52.536;5.688;2022-12-10T06:45:07;86.05;;;21.15;;
55784;SDS011;41709;52.536;5.688;2022-12-10T06:47:33;87.38;;;20.20;;
55784;SDS011;41709;52.536;5.688;2022-12-10T06:49:58;100.03;;;21.70;;
55784;SDS011;41709;52.536;5.688;2022-12-10T06:52:24;101.68;;;20.08;;
55784;SDS011;41709;52.536;5.688;2022-12-10T06:54:49;104.63;;;22.23;;
55784;SDS011;41709;52.536;5.688;2022-12-10T06:57:15;89.35;;;19.75;;
55784;SDS011;41709;52.536;5.688;2022-12-10T06:59:41;59.22;;;20.20;;
55784;SDS011;41709;52.536;5.688;2022-12-10T07:02:07;79.43;;;19.60;;
55784;SDS011;41709;52.536;5.688;2022-12-10T07:04:36;88.63;;;20.83;;
55784;SDS011;41709;52.536;5.688;2022-12-10T07:07:02;71.20;;;19.27;;
55784;SDS011;41709;52.536;5.688;2022-12-10T07:09:28;74.18;;;20.17;;
55784;SDS011;41709;52.536;5.688;2022-12-10T07:11:53;50.95;;;20.10;;
55784;SDS011;41709;52.536;5.688;2022-12-10T07:14:19;65.05;;;21.20;;
55784;SDS011;41709;52.536;5.688;2022-12-10T07:16:44;65.63;;;19.30;;
55784;SDS011;41709;52.536;5.688;2022-12-10T07:19:11;80.68;;;20.63;;
55784;SDS011;41709;52.536;5.688;2022-12-10T07:21:37;81.18;;;19.48;;
55784;SDS011;41709;52.536;5.688;2022-12-10T07:24:06;58.00;;;18.35;;
55784;SDS011;41709;52.536;5.688;2022-12-10T07:26:37;56.97;;;18.38;;
55784;SDS011;41709;52.536;5.688;2022-12-10T07:29:05;67.00;;;19.13;;
55784;SDS011;41709;52.536;5.688;2022-12-10T07:31:32;71.22;;;20.77;;
55784;SDS011;41709;52.536;5.688;2022-12-10T07:33:59;62.95;;;20.95;;
55784;SDS011;41709;52.536;5.688;2022-12-10T07:36:25;67.93;;;19.88;;
55784;SDS011;41709;52.536;5.688;2022-12-10T07:38:52;58.28;;;19.80;;
55784;SDS011;41709;52.536;5.688;2022-12-10T07:41:19;66.00;;;20.08;;
55784;SDS011;41709;52.536;5.688;2022-12-10T07:43:46;60.03;;;21.48;;
55784;SDS011;41709;52.536;5.688;2022-12-10T07:48:42;79.60;;;22.02;;
55784;SDS011;41709;52.536;5.688;2022-12-10T07:51:09;64.80;;;21.30;;
55784;SDS011;41709;52.536;5.688;2022-12-10T07:53:35;73.72;;;20.80;;
55784;SDS011;41709;52.536;5.688;2022-12-10T07:56:01;53.50;;;20.10;;
55784;SDS011;41709;52.536;5.688;2022-12-10T07:58:27;64.88;;;21.25;;
55784;SDS011;41709;52.536;5.688;2022-12-10T08:00:53;57.90;;;21.48;;
55784;SDS011;41709;52.536;5.688;2022-12-10T08:03:18;72.80;;;22.00;;
55784;SDS011;41709;52.536;5.688;2022-12-10T08:05:44;59.10;;;20.98;;
55784;SDS011;41709;52.536;5.688;2022-12-10T08:08:10;61.25;;;20.52;;
55784;SDS011;41709;52.536;5.688;2022-12-10T08:10:36;58.72;;;23.45;;
55784;SDS011;41709;52.536;5.688;2022-12-10T08:13:03;73.10;;;21.00;;
55784;SDS011;41709;52.536;5.688;2022-12-10T08:15:28;54.92;;;21.35;;
55784;SDS011;41709;52.536;5.688;2022-12-10T08:17:54;61.75;;;23.80;;
55784;SDS011;41709;52.536;5.688;2022-12-10T08:20:20;65.65;;;24.05;;
55784;SDS011;41709;52.536;5.688;2022-12-10T08:22:46;66.25;;;24.17;;
55784;SDS011;41709;52.536;5.688;2022-12-10T08:25:12;74.82;;;26.20;;
55784;SDS011;41709;52.536;5.688;2022-12-10T08:27:37;53.95;;;23.13;;
55784;SDS011;41709;52.536;5.688;2022-12-10T08:30:03;65.78;;;23.38;;
55784;SDS011;41709;52.536;5.688;2022-12-10T08:32:29;62.00;;;24.98;;
55784;SDS011;41709;52.536;5.688;2022-12-10T08:34:55;64.88;;;25.77;;
55784;SDS011;41709;52.536;5.688;2022-12-10T08:37:20;74.60;;;26.55;;
55784;SDS011;41709;52.536;5.688;2022-12-10T08:39:46;72.35;;;23.65;;
55784;SDS011;41709;52.536;5.688;2022-12-10T08:42:11;85.50;;;26.23;;
55784;SDS011;41709;52.536;5.688;2022-12-10T08:44:37;64.80;;;25.98;;
55784;SDS011;41709;52.536;5.688;2022-12-10T08:47:03;61.17;;;25.38;;
55784;SDS011;41709;52.536;5.688;2022-12-10T08:49:28;69.28;;;26.20;;
55784;SDS011;41709;52.536;5.688;2022-12-10T08:51:54;73.72;;;25.10;;
55784;SDS011;41709;52.536;5.688;2022-12-10T08:54:19;67.68;;;27.05;;
55784;SDS011;41709;52.536;5.688;2022-12-10T08:56:45;67.82;;;26.20;;
55784;SDS011;41709;52.536;5.688;2022-12-10T08:59:11;75.03;;;28.63;;
55784;SDS011;41709;52.536;5.688;2022-12-10T09:01:36;67.60;;;27.00;;
55784;SDS011;41709;52.536;5.688;2022-12-10T09:04:02;75.60;;;27.23;;
55784;SDS011;41709;52.536;5.688;2022-12-10T09:06:28;74.80;;;27.55;;
55784;SDS011;41709;52.536;5.688;2022-12-10T09:08:55;71.30;;;25.23;;
55784;SDS011;41709;52.536;5.688;2022-12-10T09:11:31;89.20;;;25.67;;
55784;SDS011;41709;52.536;5.688;2022-12-10T09:13:58;72.72;;;25.65;;
55784;SDS011;41709;52.536;5.688;2022-12-10T09:16:28;75.68;;;27.60;;
55784;SDS011;41709;52.536;5.688;2022-12-10T09:18:59;77.13;;;26.05;;
55784;SDS011;41709;52.536;5.688;2022-12-10T09:21:26;62.05;;;23.67;;
55784;SDS011;41709;52.536;5.688;2022-12-10T09:23:52;74.15;;;26.80;;
55784;SDS011;41709;52.536;5.688;2022-12-10T09:26:18;65.38;;;26.50;;
55784;SDS011;41709;52.536;5.688;2022-12-10T09:28:45;72.10;;;25.27;;
55784;SDS011;41709;52.536;5.688;2022-12-10T09:31:13;54.10;;;24.65;;
55784;SDS011;41709;52.536;5.688;2022-12-10T09:33:41;53.20;;;22.53;;
55784;SDS011;41709;52.536;5.688;2022-12-10T09:36:08;69.25;;;23.83;;
55784;SDS011;41709;52.536;5.688;2022-12-10T09:38:35;47.67;;;21.95;;
55784;SDS011;41709;52.536;5.688;2022-12-10T09:51:16;56.30;;;22.95;;
55784;SDS011;41709;52.536;5.688;2022-12-10T09:53:46;57.88;;;23.50;;
55784;SDS011;41709;52.536;5.688;2022-12-10T09:56:18;65.88;;;24.23;;
55784;SDS011;41709;52.536;5.688;2022-12-10T09:58:47;60.13;;;24.90;;
55784;SDS011;41709;52.536;5.688;2022-12-10T10:01:14;54.35;;;23.55;;
55784;SDS011;41709;52.536;5.688;2022-12-10T10:03:42;57.92;;;23.90;;
55784;SDS011;41709;52.536;5.688;2022-12-10T10:06:09;62.47;;;22.00;;
55784;SDS011;41709;52.536;5.688;2022-12-10T10:08:46;58.92;;;23.30;;
55784;SDS011;41709;52.536;5.688;2022-12-10T10:11:23;56.38;;;21.90;;
55784;SDS011;41709;52.536;5.688;2022-12-10T10:16:43;53.25;;;22.92;;
55784;SDS011;41709;52.536;5.688;2022-12-10T10:19:20;63.05;;;23.80;;
55784;SDS011;41709;52.536;5.688;2022-12-10T10:21:50;58.47;;;23.35;;
55784;SDS011;41709;52.536;5.688;2022-12-10T10:24:18;66.82;;;25.05;;
55784;SDS011;41709;52.536;5.688;2022-12-10T10:26:57;61.88;;;24.23;;
55784;SDS011;41709;52.536;5.688;2022-12-10T10:29:26;61.35;;;25.38;;
55784;SDS011;41709;52.536;5.688;2022-12-10T10:32:11;61.17;;;26.27;;
55784;SDS011;41709;52.536;5.688;2022-12-10T10:34:39;54.42;;;24.48;;
55784;SDS011;41709;52.536;5.688;2022-12-10T10:37:05;56.65;;;23.60;;
55784;SDS011;41709;52.536;5.688;2022-12-10T10:39:31;62.97;;;25.88;;
55784;SDS011;41709;52.536;5.688;2022-12-10T10:41:59;51.08;;;24.20;;
55784;SDS011;41709;52.536;5.688;2022-12-10T10:44:34;63.78;;;25.13;;
55784;SDS011;41709;52.536;5.688;2022-12-10T10:47:02;59.63;;;25.48;;
55784;SDS011;41709;52.536;5.688;2022-12-10T10:49:50;66.72;;;26.58;;
55784;SDS011;41709;52.536;5.688;2022-12-10T10:52:16;60.47;;;25.30;;
55784;SDS011;41709;52.536;5.688;2022-12-10T10:54:43;68.65;;;26.20;;
55784;SDS011;41709;52.536;5.688;2022-12-10T10:57:21;65.20;;;25.60;;
55784;SDS011;41709;52.536;5.688;2022-12-10T10:59:54;66.15;;;25.52;;
55784;SDS011;41709;52.536;5.688;2022-12-10T11:02:35;68.45;;;25.67;;
55784;SDS011;41709;52.536;5.688;2022-12-10T11:05:21;58.95;;;24.65;;
55784;SDS011;41709;52.536;5.688;2022-12-10T11:10:30;59.92;;;25.00;;
55784;SDS011;41709;52.536;5.688;2022-12-10T11:15:31;71.43;;;26.42;;
55784;SDS011;41709;52.536;5.688;2022-12-10T11:24:38;58.80;;;25.17;;
55784;SDS011;41709;52.536;5.688;2022-12-10T11:26:45;72.00;;;24.30;;
55784;SDS011;41709;52.536;5.688;2022-12-10T11:35:29;50.92;;;22.08;;
55784;SDS011;41709;52.536;5.688;2022-12-10T11:43:30;55.80;;;24.17;;
55784;SDS011;41709;52.536;5.688;2022-12-10T11:57:17;82.75;;;24.85;;
55784;SDS011;41709;52.536;5.688;2022-12-10T12:13:35;67.10;;;20.98;;
55784;SDS011;41709;52.536;5.688;2022-12-10T12:16:26;49.63;;;20.52;;
55784;SDS011;41709;52.536;5.688;2022-12-10T12:21:36;63.90;;;19.40;;
55784;SDS011;41709;52.536;5.688;2022-12-10T12:24:07;85.38;;;20.73;;
55784;SDS011;41709;52.536;5.688;2022-12-10T12:26:46;84.30;;;21.13;;
55784;SDS011;41709;52.536;5.688;2022-12-10T12:29:30;64.45;;;19.23;;
55784;SDS011;41709;52.536;5.688;2022-12-10T12:32:07;67.63;;;20.02;;
55784;SDS011;41709;52.536;5.688;2022-12-10T12:37:34;75.30;;;21.10;;
55784;SDS011;41709;52.536;5.688;2022-12-10T12:45:20;65.63;;;19.88;;
55784;SDS011;41709;52.536;5.688;2022-12-10T12:48:04;82.60;;;20.13;;
55784;SDS011;41709;52.536;5.688;2022-12-10T12:50:54;68.55;;;20.88;;
55784;SDS011;41709;52.536;5.688;2022-12-10T12:53:22;77.93;;;21.75;;
55784;SDS011;41709;52.536;5.688;2022-12-10T13:04:05;70.97;;;21.05;;
55784;SDS011;41709;52.536;5.688;2022-12-10T13:06:35;76.13;;;20.60;;
55784;SDS011;41709;52.536;5.688;2022-12-10T13:14:35;68.32;;;20.42;;
55784;SDS011;41709;52.536;5.688;2022-12-10T13:23:01;60.58;;;19.30;;
55784;SDS011;41709;52.536;5.688;2022-12-10T13:31:15;65.22;;;20.60;;
55784;SDS011;41709;52.536;5.688;2022-12-10T13:33:52;64.72;;;19.38;;
55784;SDS011;41709;52.536;5.688;2022-12-10T13:36:29;53.42;;;19.35;;
55784;SDS011;41709;52.536;5.688;2022-12-10T13:41:33;85.50;;;19.88;;
55784;SDS011;41709;52.536;5.688;2022-12-10T13:52:19;83.13;;;20.50;;
55784;SDS011;41709;52.536;5.688;2022-12-10T14:00:56;72.43;;;19.15;;
55784;SDS011;41709;52.536;5.688;2022-12-10T14:06:22;68.38;;;20.05;;
55784;SDS011;41709;52.536;5.688;2022-12-10T14:09:03;78.50;;;20.55;;
55784;SDS011;41709;52.536;5.688;2022-12-10T14:11:36;72.88;;;20.25;;
55784;SDS011;41709;52.536;5.688;2022-12-10T14:14:05;73.20;;;18.80;;
55784;SDS011;41709;52.536;5.688;2022-12-10T14:16:35;65.75;;;19.38;;
55784;SDS011;41709;52.536;5.688;2022-12-10T14:19:06;76.38;;;19.63;;
55784;SDS011;41709;52.536;5.688;2022-12-10T14:21:37;63.47;;;19.48;;
55784;SDS011;41709;52.536;5.688;2022-12-10T14:24:06;84.30;;;19.95;;
55784;SDS011;41709;52.536;5.688;2022-12-10T14:26:56;77.13;;;18.70;;
55784;SDS011;41709;52.536;5.688;2022-12-10T14:29:24;68.57;;;18.65;;
55784;SDS011;41709;52.536;5.688;2022-12-10T14:31:50;61.10;;;18.23;;
55784;SDS011;41709;52.536;5.688;2022-12-10T14:34:17;54.97;;;17.65;;
55784;SDS011;41709;52.536;5.688;2022-12-10T14:36:51;57.58;;;17.95;;
55784;SDS011;41709;52.536;5.688;2022-12-10T14:39:26;60.60;;;19.45;;
55784;SDS011;41709;52.536;5.688;2022-12-10T14:41:55;60.97;;;17.80;;
55784;SDS011;41709;52.536;5.688;2022-12-10T14:44:22;78.28;;;20.67;;
55784;SDS011;41709;52.536;5.688;2022-12-10T14:46:48;56.28;;;18.50;;
55784;SDS011;41709;52.536;5.688;2022-12-10T14:49:15;54.53;;;18.15;;
55784;SDS011;41709;52.536;5.688;2022-12-10T14:51:46;65.68;;;18.45;;
55784;SDS011;41709;52.536;5.688;2022-12-10T14:54:32;69.40;;;17.27;;
55784;SDS011;41709;52.536;5.688;2022-12-10T14:57:07;63.08;;;18.35;;
55784;SDS011;41709;52.536;5.688;2022-12-10T14:59:42;86.15;;;19.10;;
55784;SDS011;41709;52.536;5.688;2022-12-10T15:02:22;73.15;;;17.95;;
55784;SDS011;41709;52.536;5.688;2022-12-10T15:04:52;75.55;;;18.23;;
55784;SDS011;41709;52.536;5.688;2022-12-10T15:07:25;75.47;;;18.02;;
55784;SDS011;41709;52.536;5.688;2022-12-10T15:09:56;59.03;;;16.90;;
55784;SDS011;41709;52.536;5.688;2022-12-10T15:15:29;62.45;;;16.98;;
55784;SDS011;41709;52.536;5.688;2022-12-10T15:20:53;65.07;;;17.93;;
55784;SDS011;41709;52.536;5.688;2022-12-10T15:23:31;46.72;;;17.63;;
55784;SDS011;41709;52.536;5.688;2022-12-10T15:28:27;58.67;;;18.92;;
55784;SDS011;41709;52.536;5.688;2022-12-10T15:30:57;54.22;;;17.83;;
55784;SDS011;41709;52.536;5.688;2022-12-10T15:36:28;68.63;;;17.83;;
55784;SDS011;41709;52.536;5.688;2022-12-10T15:41:43;67.20;;;17.48;;
55784;SDS011;41709;52.536;5.688;2022-12-10T15:44:17;61.72;;;18.08;;
55784;SDS011;41709;52.536;5.688;2022-12-10T15:47:37;46.72;;;17.15;;
55784;SDS011;41709;52.536;5.688;2022-12-10T15:49:45;61.03;;;17.35;;
55784;SDS011;41709;52.536;5.688;2022-12-10T15:52:12;55.33;;;16.20;;
55784;SDS011;41709;52.536;5.688;2022-12-10T15:54:40;56.97;;;17.80;;
55784;SDS011;41709;52.536;5.688;2022-12-10T15:59:44;69.60;;;17.73;;
55784;SDS011;41709;52.536;5.688;2022-12-10T16:07:55;79.22;;;18.67;;
55784;SDS011;41709;52.536;5.688;2022-12-10T16:10:23;56.13;;;16.88;;
55784;SDS011;41709;52.536;5.688;2022-12-10T16:13:03;61.10;;;17.48;;
55784;SDS011;41709;52.536;5.688;2022-12-10T16:15:32;72.43;;;19.35;;
55784;SDS011;41709;52.536;5.688;2022-12-10T16:18:02;80.55;;;19.58;;
55784;SDS011;41709;52.536;5.688;2022-12-10T16:20:29;98.40;;;18.42;;
55784;SDS011;41709;52.536;5.688;2022-12-10T16:22:57;83.82;;;20.30;;
55784;SDS011;41709;52.536;5.688;2022-12-10T16:25:24;74.93;;;19.50;;
55784;SDS011;41709;52.536;5.688;2022-12-10T16:27:51;92.22;;;22.70;;
55784;SDS011;41709;52.536;5.688;2022-12-10T16:30:18;67.63;;;19.92;;
55784;SDS011;41709;52.536;5.688;2022-12-10T16:32:46;84.53;;;20.35;;
55784;SDS011;41709;52.536;5.688;2022-12-10T16:35:12;67.88;;;20.92;;
55784;SDS011;41709;52.536;5.688;2022-12-10T16:37:40;75.30;;;20.08;;
55784;SDS011;41709;52.536;5.688;2022-12-10T16:40:07;64.68;;;18.48;;
55784;SDS011;41709;52.536;5.688;2022-12-10T16:42:32;64.65;;;18.92;;
55784;SDS011;41709;52.536;5.688;2022-12-10T16:44:58;84.72;;;20.70;;
55784;SDS011;41709;52.536;5.688;2022-12-10T16:47:24;60.17;;;17.98;;
55784;SDS011;41709;52.536;5.688;2022-12-10T16:49:50;60.47;;;20.02;;
55784;SDS011;41709;52.536;5.688;2022-12-10T16:52:16;71.00;;;19.23;;
55784;SDS011;41709;52.536;5.688;2022-12-10T16:54:43;50.25;;;17.42;;
55784;SDS011;41709;52.536;5.688;2022-12-10T16:57:12;71.00;;;20.08;;
55784;SDS011;41709;52.536;5.688;2022-12-10T16:59:39;72.03;;;19.13;;
55784;SDS011;41709;52.536;5.688;2022-12-10T17:02:14;55.95;;;18.38;;
55784;SDS011;41709;52.536;5.688;2022-12-10T17:04:41;63.10;;;20.70;;
55784;SDS011;41709;52.536;5.688;2022-12-10T17:07:09;74.38;;;20.05;;
55784;SDS011;41709;52.536;5.688;2022-12-10T17:09:36;72.57;;;20.48;;
55784;SDS011;41709;52.536;5.688;2022-12-10T17:12:02;60.55;;;19.88;;
55784;SDS011;41709;52.536;5.688;2022-12-10T17:14:30;47.15;;;16.83;;
55784;SDS011;41709;52.536;5.688;2022-12-10T17:19:28;47.25;;;17.95;;
55784;SDS011;41709;52.536;5.688;2022-12-10T17:22:02;49.47;;;17.75;;
55784;SDS011;41709;52.536;5.688;2022-12-10T17:24:29;52.70;;;18.20;;